Time;durP1;ratioP1;P1;durP2;ratioP2;P2;SDS_P1;SDS_P2;PMS_P1;PMS_P2;Temp;Humidity;BMP_temperature;BMP_pressure;BME280_temperature;BME280_humidity;BME280_pressure;Samples;Min_cycle;Max_cycle;Signal;HPM_P1;HPM_P2
2021/08/07 00:00:03;;;;;;;5.07;3.95;;;;;;;;;;5110629;27;20046;-69
2021/08/07 00:02:30;;;;;;;5.22;3.65;;;;;;;;;;5112679;27;20044;-69
2021/08/07 00:04:56;;;;;;;5.80;3.65;;;;;;;;;;5097818;27;20060;-69
2021/08/07 00:07:26;;;;;;;7.38;3.80;;;;;;;;;;5106567;27;20255;-69
2021/08/07 00:09:52;;;;;;;8.63;4.03;;;;;;;;;;5081170;27;20072;-69
2021/08/07 00:12:18;;;;;;;5.18;3.95;;;;;;;;;;5101213;27;20024;-69
2021/08/07 00:14:44;;;;;;;5.72;3.67;;;;;;;;;;5114535;27;20108;-68
2021/08/07 00:17:11;;;;;;;5.55;3.67;;;;;;;;;;5108325;27;20071;-69
2021/08/07 00:19:37;;;;;;;5.68;3.75;;;;;;;;;;5119594;27;20066;-69
2021/08/07 00:22:04;;;;;;;4.28;3.50;;;;;;;;;;5106136;27;20040;-69
2021/08/07 00:24:30;;;;;;;5.88;3.60;;;;;;;;;;5115351;27;20024;-68
2021/08/07 00:26:56;;;;;;;5.35;3.55;;;;;;;;;;5108436;27;20039;-68
2021/08/07 00:29:23;;;;;;;6.53;3.60;;;;;;;;;;5113894;27;20043;-68
2021/08/07 00:31:49;;;;;;;8.45;3.53;;;;;;;;;;5114980;27;20035;-68
2021/08/07 00:34:15;;;;;;;6.93;3.30;;;;;;;;;;5108349;27;20035;-69
2021/08/07 00:36:42;;;;;;;8.07;3.20;;;;;;;;;;5115987;27;20044;-68
2021/08/07 00:39:08;;;;;;;5.70;3.05;;;;;;;;;;5103343;27;20040;-68
2021/08/07 00:41:34;;;;;;;4.63;3.03;;;;;;;;;;5114773;27;20038;-69
2021/08/07 00:44:00;;;;;;;5.15;2.63;;;;;;;;;;5110040;27;20032;-69
2021/08/07 00:46:26;;;;;;;4.18;2.35;;;;;;;;;;5117484;27;20043;-69
2021/08/07 00:48:52;;;;;;;5.65;2.40;;;;;;;;;;5108135;27;20055;-69
2021/08/07 00:51:19;;;;;;;4.60;2.42;;;;;;;;;;5113904;27;20035;-69
2021/08/07 00:53:46;;;;;;;4.28;2.15;;;;;;;;;;5112343;27;20089;-69
2021/08/07 00:56:12;;;;;;;3.90;2.28;;;;;;;;;;5111698;27;20039;-69
2021/08/07 00:58:38;;;;;;;4.75;1.92;;;;;;;;;;5105593;27;20119;-70
2021/08/07 01:01:07;;;;;;;5.18;1.95;;;;;;;;;;5112480;27;20106;-70
2021/08/07 01:03:45;;;;;;;5.70;2.20;;;;;;;;;;5110047;27;20400;-69
2021/08/07 01:06:14;;;;;;;5.53;1.73;;;;;;;;;;5111679;27;20044;-69
2021/08/07 01:08:43;;;;;;;3.38;1.65;;;;;;;;;;5095452;28;20539;-69
2021/08/07 01:11:19;;;;;;;8.38;2.03;;;;;;;;;;5114630;28;20059;-69
2021/08/07 01:13:47;;;;;;;6.07;1.67;;;;;;;;;;5108722;28;20040;-69
2021/08/07 01:16:19;;;;;;;5.78;1.67;;;;;;;;;;5112407;28;20506;-69
2021/08/07 01:18:46;;;;;;;7.57;1.77;;;;;;;;;;5111134;28;20042;-69
2021/08/07 01:21:16;;;;;;;3.22;1.45;;;;;;;;;;5107144;28;20430;-69
2021/08/07 01:23:42;;;;;;;6.30;1.73;;;;;;;;;;5116195;28;20071;-70
2021/08/07 01:26:27;;;;;;;5.22;1.75;;;;;;;;;;5102342;28;20089;-70
2021/08/07 01:28:53;;;;;;;5.20;1.58;;;;;;;;;;5108536;28;20436;-70
2021/08/07 01:31:20;;;;;;;4.20;1.50;;;;;;;;;;5103245;28;20106;-69
2021/08/07 01:33:47;;;;;;;4.35;1.38;;;;;;;;;;5119707;28;20253;-69
2021/08/07 01:36:14;;;;;;;6.78;1.92;;;;;;;;;;5090598;28;20042;-69
2021/08/07 01:38:43;;;;;;;3.05;1.30;;;;;;;;;;5104410;28;20035;-69
2021/08/07 01:41:20;;;;;;;3.10;1.33;;;;;;;;;;5104228;28;20438;-69
2021/08/07 01:43:46;;;;;;;4.82;1.50;;;;;;;;;;5117539;28;20070;-69
2021/08/07 01:46:14;;;;;;;3.80;1.40;;;;;;;;;;5103186;28;20039;-69
2021/08/07 01:48:55;;;;;;;5.60;1.50;;;;;;;;;;5112298;28;20395;-69
2021/08/07 01:51:23;;;;;;;5.18;1.33;;;;;;;;;;5111766;27;20109;-69
2021/08/07 01:53:50;;;;;;;4.95;1.40;;;;;;;;;;5123136;27;20035;-69
2021/08/07 01:56:18;;;;;;;3.75;1.67;;;;;;;;;;5104202;27;20491;-69
2021/08/07 01:58:46;;;;;;;5.57;1.70;;;;;;;;;;5112814;27;20082;-69
2021/08/07 02:01:14;;;;;;;4.88;1.67;;;;;;;;;;5115626;27;20063;-69
2021/08/07 02:03:41;;;;;;;4.43;1.73;;;;;;;;;;5115969;27;20054;-69
2021/08/07 02:06:08;;;;;;;4.18;1.42;;;;;;;;;;5102954;27;20066;-69
2021/08/07 02:08:37;;;;;;;4.15;1.77;;;;;;;;;;5112197;27;20540;-69
2021/08/07 02:11:04;;;;;;;4.65;1.45;;;;;;;;;;5117086;27;20035;-69
2021/08/07 02:13:30;;;;;;;4.95;1.55;;;;;;;;;;5119165;27;20378;-69
2021/08/07 02:15:57;;;;;;;4.32;1.40;;;;;;;;;;5103575;27;20042;-69
2021/08/07 02:18:25;;;;;;;6.32;2.05;;;;;;;;;;5109999;27;20032;-69
2021/08/07 02:20:52;;;;;;;5.30;1.55;;;;;;;;;;5118822;27;20123;-69
2021/08/07 02:23:27;;;;;;;5.10;1.58;;;;;;;;;;5111190;27;20475;-69
2021/08/07 02:25:58;;;;;;;5.88;1.85;;;;;;;;;;5111909;27;20028;-69
2021/08/07 02:28:25;;;;;;;4.45;1.50;;;;;;;;;;5112268;27;20039;-69
2021/08/07 02:30:52;;;;;;;5.28;1.77;;;;;;;;;;5119464;27;20398;-69
2021/08/07 02:33:19;;;;;;;3.53;1.83;;;;;;;;;;5110491;27;20050;-69
2021/08/07 02:35:46;;;;;;;4.80;1.75;;;;;;;;;;5113521;27;20526;-69
2021/08/07 02:38:12;;;;;;;4.43;1.80;;;;;;;;;;5092070;27;20052;-69
2021/08/07 02:40:38;;;;;;;2.85;1.52;;;;;;;;;;5116727;27;20035;-69
2021/08/07 02:43:05;;;;;;;5.53;1.70;;;;;;;;;;5110175;27;20046;-69
2021/08/07 02:45:32;;;;;;;7.25;2.13;;;;;;;;;;5113369;27;20551;-69
2021/08/07 02:47:58;;;;;;;6.00;2.00;;;;;;;;;;5113480;27;20047;-69
2021/08/07 02:50:24;;;;;;;4.40;1.40;;;;;;;;;;5120384;27;20027;-69
2021/08/07 02:52:51;;;;;;;4.75;1.52;;;;;;;;;;5107637;27;20077;-69
2021/08/07 02:55:19;;;;;;;5.55;1.55;;;;;;;;;;5119520;27;20112;-68
2021/08/07 02:57:46;;;;;;;6.13;2.03;;;;;;;;;;5112318;27;20043;-68
2021/08/07 03:00:12;;;;;;;7.20;1.83;;;;;;;;;;5111917;27;20042;-68
2021/08/07 03:02:39;;;;;;;5.72;1.67;;;;;;;;;;5115332;27;20556;-68
2021/08/07 03:05:10;;;;;;;5.40;2.05;;;;;;;;;;5108199;27;20036;-68
2021/08/07 03:07:36;;;;;;;6.13;1.70;;;;;;;;;;5115342;27;20040;-68
2021/08/07 03:10:05;;;;;;;4.55;1.50;;;;;;;;;;5107991;27;20047;-68
2021/08/07 03:12:31;;;;;;;6.03;1.90;;;;;;;;;;5114119;27;20070;-68
2021/08/07 03:14:57;;;;;;;6.32;2.80;;;;;;;;;;5109051;27;20043;-68
2021/08/07 03:17:24;;;;;;;5.13;2.38;;;;;;;;;;5112200;27;20067;-68
2021/08/07 03:19:50;;;;;;;4.38;2.03;;;;;;;;;;5105291;27;20043;-68
2021/08/07 03:22:17;;;;;;;7.53;1.98;;;;;;;;;;5118756;27;20513;-68
2021/08/07 03:24:44;;;;;;;7.40;2.00;;;;;;;;;;5109541;27;20050;-68
2021/08/07 03:27:10;;;;;;;5.72;2.25;;;;;;;;;;5115440;27;20043;-69
2021/08/07 03:29:36;;;;;;;4.65;1.77;;;;;;;;;;5107868;27;20035;-69
2021/08/07 03:32:03;;;;;;;5.85;2.40;;;;;;;;;;5117616;27;20379;-69
2021/08/07 03:34:30;;;;;;;7.72;2.47;;;;;;;;;;5106003;27;20028;-68
2021/08/07 03:36:56;;;;;;;5.57;2.03;;;;;;;;;;5113985;27;20440;-68
2021/08/07 03:39:23;;;;;;;5.80;1.85;;;;;;;;;;5110767;27;20391;-68
2021/08/07 03:41:51;;;;;;;5.50;1.90;;;;;;;;;;5118190;27;20121;-68
2021/08/07 03:44:17;;;;;;;7.55;2.20;;;;;;;;;;5118971;27;20351;-68
2021/08/07 03:46:43;;;;;;;8.88;2.67;;;;;;;;;;5103479;27;20044;-68
2021/08/07 03:49:15;;;;;;;9.30;2.20;;;;;;;;;;5114609;27;20066;-68
2021/08/07 03:51:42;;;;;;;6.07;2.70;;;;;;;;;;5112886;27;20035;-68
2021/08/07 03:54:08;;;;;;;7.47;2.42;;;;;;;;;;5113180;27;20031;-68
2021/08/07 03:56:34;;;;;;;5.72;2.63;;;;;;;;;;5100250;27;20044;-68
2021/08/07 03:59:01;;;;;;;7.47;2.67;;;;;;;;;;5118149;27;20493;-68
2021/08/07 04:01:27;;;;;;;5.95;2.60;;;;;;;;;;5110125;27;20031;-68
2021/08/07 04:03:53;;;;;;;11.02;3.00;;;;;;;;;;5111147;27;20039;-68
2021/08/07 04:06:19;;;;;;;7.35;2.38;;;;;;;;;;5109059;27;20118;-68
2021/08/07 04:08:45;;;;;;;8.18;2.78;;;;;;;;;;5096242;27;20126;-68
2021/08/07 04:11:11;;;;;;;9.10;2.65;;;;;;;;;;5108438;27;20035;-68
2021/08/07 04:13:37;;;;;;;10.40;3.00;;;;;;;;;;5111365;27;20085;-68
2021/08/07 04:16:04;;;;;;;5.63;2.70;;;;;;;;;;5093514;28;20055;-68
2021/08/07 04:18:30;;;;;;;8.23;3.13;;;;;;;;;;5116709;27;20046;-68
2021/08/07 04:20:56;;;;;;;5.20;2.53;;;;;;;;;;5105769;27;20398;-68
2021/08/07 04:23:23;;;;;;;8.10;2.90;;;;;;;;;;5106517;27;20102;-68
2021/08/07 04:25:49;;;;;;;7.88;2.70;;;;;;;;;;5114657;27;20042;-68
2021/08/07 04:28:15;;;;;;;8.48;2.97;;;;;;;;;;5108688;27;20036;-68
2021/08/07 04:30:41;;;;;;;7.60;2.63;;;;;;;;;;5113982;27;20557;-68
2021/08/07 04:33:08;;;;;;;5.40;2.60;;;;;;;;;;5099511;27;20037;-68
2021/08/07 04:35:35;;;;;;;8.35;3.10;;;;;;;;;;5118081;27;20150;-68
2021/08/07 04:38:01;;;;;;;7.60;3.08;;;;;;;;;;5105193;27;20043;-68
2021/08/07 04:40:28;;;;;;;7.50;2.80;;;;;;;;;;5111019;27;20067;-68
2021/08/07 04:42:54;;;;;;;11.70;3.17;;;;;;;;;;5109355;27;20039;-68
2021/08/07 04:45:20;;;;;;;7.68;2.53;;;;;;;;;;5117030;27;20422;-68
2021/08/07 04:47:54;;;;;;;6.72;2.67;;;;;;;;;;5100632;27;20058;-68
2021/08/07 04:50:20;;;;;;;7.18;2.67;;;;;;;;;;5110209;27;20043;-69
2021/08/07 04:52:46;;;;;;;9.38;2.97;;;;;;;;;;5106501;27;20040;-68
2021/08/07 04:55:12;;;;;;;9.35;2.70;;;;;;;;;;5116978;27;20027;-68
2021/08/07 04:57:38;;;;;;;6.13;3.08;;;;;;;;;;5097548;27;20043;-68
2021/08/07 05:00:06;;;;;;;8.32;3.05;;;;;;;;;;5115135;27;20028;-68
2021/08/07 05:02:32;;;;;;;8.13;2.90;;;;;;;;;;5109631;27;20580;-68
2021/08/07 05:04:58;;;;;;;8.82;3.08;;;;;;;;;;5115315;27;20036;-68
2021/08/07 05:07:24;;;;;;;9.80;3.00;;;;;;;;;;5108916;28;20039;-68
2021/08/07 05:09:50;;;;;;;9.45;3.22;;;;;;;;;;5109163;27;20039;-69
2021/08/07 05:12:16;;;;;;;8.15;3.13;;;;;;;;;;5116140;28;20108;-69
2021/08/07 05:14:42;;;;;;;11.05;2.53;;;;;;;;;;5104026;28;20049;-69
2021/08/07 05:17:09;;;;;;;8.93;2.75;;;;;;;;;;5110801;28;20031;-69
2021/08/07 05:19:35;;;;;;;6.53;2.85;;;;;;;;;;5112508;28;20070;-69
2021/08/07 05:22:01;;;;;;;8.32;3.03;;;;;;;;;;5115674;28;20506;-69
2021/08/07 05:24:27;;;;;;;7.28;2.80;;;;;;;;;;5083914;27;20130;-69
2021/08/07 05:26:53;;;;;;;7.85;3.03;;;;;;;;;;5118192;27;20403;-69
2021/08/07 05:29:19;;;;;;;10.43;3.13;;;;;;;;;;5112412;27;20050;-69
2021/08/07 05:31:45;;;;;;;9.40;3.38;;;;;;;;;;5114981;27;20043;-69
2021/08/07 05:34:11;;;;;;;7.53;3.33;;;;;;;;;;5103806;27;20202;-69
2021/08/07 05:36:38;;;;;;;9.93;2.92;;;;;;;;;;5117612;27;20031;-69
2021/08/07 05:39:04;;;;;;;6.80;3.15;;;;;;;;;;5109814;27;20043;-69
2021/08/07 05:41:30;;;;;;;8.70;2.90;;;;;;;;;;5091693;27;20047;-69
2021/08/07 05:43:56;;;;;;;8.63;2.95;;;;;;;;;;5114350;27;20063;-69
2021/08/07 05:46:22;;;;;;;8.15;2.65;;;;;;;;;;5114956;27;20139;-69
2021/08/07 05:48:54;;;;;;;8.00;2.92;;;;;;;;;;5115692;27;20528;-69
2021/08/07 05:51:20;;;;;;;11.23;3.25;;;;;;;;;;5109113;27;20399;-69
2021/08/07 05:53:46;;;;;;;8.40;2.75;;;;;;;;;;5114871;27;20552;-69
2021/08/07 05:56:12;;;;;;;9.00;3.03;;;;;;;;;;5112807;27;20095;-69
2021/08/07 05:58:38;;;;;;;9.18;3.20;;;;;;;;;;5114089;27;20039;-70
2021/08/07 06:01:05;;;;;;;7.07;3.05;;;;;;;;;;5102299;27;20031;-70
2021/08/07 06:03:32;;;;;;;9.10;3.30;;;;;;;;;;5102097;27;20078;-70
2021/08/07 06:05:58;;;;;;;9.45;3.08;;;;;;;;;;5114881;27;20037;-70
2021/08/07 06:08:24;;;;;;;9.02;3.38;;;;;;;;;;5115374;27;20031;-70
2021/08/07 06:10:50;;;;;;;11.35;3.70;;;;;;;;;;5112547;27;20040;-70
2021/08/07 06:13:17;;;;;;;10.57;3.22;;;;;;;;;;5120635;27;20265;-70
2021/08/07 06:15:43;;;;;;;9.43;3.67;;;;;;;;;;5112776;27;20042;-70
2021/08/07 06:18:09;;;;;;;7.75;3.13;;;;;;;;;;5111383;27;20142;-70
2021/08/07 06:20:35;;;;;;;7.00;3.20;;;;;;;;;;5077160;28;20036;-70
2021/08/07 06:23:01;;;;;;;8.23;3.28;;;;;;;;;;5120744;27;20040;-70
2021/08/07 06:25:27;;;;;;;6.45;3.42;;;;;;;;;;5090960;27;20039;-70
2021/08/07 06:27:54;;;;;;;8.20;3.47;;;;;;;;;;5106031;27;20115;-70
2021/08/07 06:30:21;;;;;;;13.20;3.60;;;;;;;;;;5116159;27;20036;-70
2021/08/07 06:32:47;;;;;;;13.32;3.28;;;;;;;;;;5112109;27;20035;-70
2021/08/07 06:35:13;;;;;;;8.98;3.10;;;;;;;;;;5114195;27;20266;-70
2021/08/07 06:37:39;;;;;;;9.63;3.10;;;;;;;;;;5111136;27;20488;-70
2021/08/07 06:40:06;;;;;;;10.27;3.30;;;;;;;;;;5118256;27;20036;-70
2021/08/07 06:42:32;;;;;;;8.50;3.03;;;;;;;;;;5108904;27;20332;-70
2021/08/07 06:44:58;;;;;;;5.28;3.35;;;;;;;;;;5119455;27;20588;-72
2021/08/07 06:47:24;;;;;;;9.32;2.92;;;;;;;;;;5112212;27;20499;-70
2021/08/07 06:49:50;;;;;;;7.13;3.00;;;;;;;;;;5116858;27;20035;-70
2021/08/07 06:52:17;;;;;;;7.65;3.20;;;;;;;;;;5101981;27;20038;-70
2021/08/07 06:54:43;;;;;;;6.57;3.50;;;;;;;;;;5117652;27;20160;-70
2021/08/07 06:57:14;;;;;;;7.78;2.92;;;;;;;;;;5107580;27;20053;-70
2021/08/07 06:59:40;;;;;;;6.38;2.72;;;;;;;;;;5115908;27;20027;-70
2021/08/07 07:02:07;;;;;;;9.85;3.08;;;;;;;;;;5107439;27;20067;-69
2021/08/07 07:04:34;;;;;;;6.93;3.03;;;;;;;;;;5111880;27;20471;-69
2021/08/07 07:07:00;;;;;;;7.90;2.55;;;;;;;;;;5115806;27;20566;-69
2021/08/07 07:09:27;;;;;;;7.10;2.67;;;;;;;;;;5107679;27;20066;-70
2021/08/07 07:11:53;;;;;;;7.65;2.90;;;;;;;;;;5113126;27;20106;-70
2021/08/07 07:14:19;;;;;;;8.13;2.53;;;;;;;;;;5113744;27;20034;-69
2021/08/07 07:16:46;;;;;;;7.90;2.50;;;;;;;;;;5116076;27;20039;-69
2021/08/07 07:19:12;;;;;;;8.45;2.40;;;;;;;;;;5107695;27;20066;-69
2021/08/07 07:21:38;;;;;;;8.98;2.10;;;;;;;;;;5113005;27;20059;-69
2021/08/07 07:24:04;;;;;;;7.93;2.58;;;;;;;;;;5113233;27;20172;-69
2021/08/07 07:26:31;;;;;;;7.55;2.05;;;;;;;;;;5113599;27;20096;-70
2021/08/07 07:28:57;;;;;;;9.13;4.05;;;;;;;;;;5108172;27;20468;-70
2021/08/07 07:31:24;;;;;;;7.18;1.85;;;;;;;;;;5116543;27;20051;-70
2021/08/07 07:33:50;;;;;;;5.20;1.73;;;;;;;;;;5104973;27;20040;-69
2021/08/07 07:36:16;;;;;;;7.72;1.95;;;;;;;;;;5110868;27;20067;-70
2021/08/07 07:38:42;;;;;;;4.63;1.60;;;;;;;;;;5106595;27;20067;-70
2021/08/07 07:41:09;;;;;;;5.63;1.50;;;;;;;;;;5119040;27;20444;-70
2021/08/07 07:43:35;;;;;;;5.95;1.65;;;;;;;;;;5114946;27;20110;-70
2021/08/07 07:46:01;;;;;;;5.45;1.40;;;;;;;;;;5105234;27;20126;-70
2021/08/07 07:48:27;;;;;;;8.00;1.67;;;;;;;;;;5111739;27;20042;-70
2021/08/07 07:50:54;;;;;;;4.95;1.33;;;;;;;;;;5111693;27;20402;-70
2021/08/07 07:53:20;;;;;;;5.63;1.23;;;;;;;;;;5112488;27;20119;-70
2021/08/07 07:55:46;;;;;;;5.30;1.20;;;;;;;;;;5104465;27;20532;-70
2021/08/07 07:58:12;;;;;;;5.82;1.20;;;;;;;;;;5114722;27;20515;-70
2021/08/07 08:00:38;;;;;;;6.28;1.35;;;;;;;;;;5114540;27;20035;-70
2021/08/07 08:03:05;;;;;;;5.38;1.00;;;;;;;;;;5108157;27;20055;-70
2021/08/07 08:05:31;;;;;;;6.55;1.23;;;;;;;;;;5104801;27;20505;-70
2021/08/07 08:07:58;;;;;;;4.10;1.42;;;;;;;;;;5116174;27;20036;-70
2021/08/07 08:10:24;;;;;;;4.15;1.10;;;;;;;;;;5101548;27;20455;-71
2021/08/07 08:12:50;;;;;;;5.22;1.30;;;;;;;;;;5111973;27;20096;-71
2021/08/07 08:15:16;;;;;;;6.93;1.30;;;;;;;;;;5111062;27;20046;-71
2021/08/07 08:17:42;;;;;;;3.53;1.23;;;;;;;;;;5085039;27;20527;-71
2021/08/07 08:20:10;;;;;;;5.88;1.35;;;;;;;;;;5105933;27;20463;-71
2021/08/07 08:22:36;;;;;;;6.22;1.50;;;;;;;;;;5105908;27;20442;-71
2021/08/07 08:25:03;;;;;;;4.60;1.23;;;;;;;;;;5115663;27;20059;-71
2021/08/07 08:27:29;;;;;;;5.32;1.20;;;;;;;;;;5112260;27;20066;-71
2021/08/07 08:29:57;;;;;;;3.55;0.98;;;;;;;;;;5107765;27;20035;-71
2021/08/07 08:32:23;;;;;;;5.25;1.10;;;;;;;;;;5106642;27;20050;-71
2021/08/07 08:34:49;;;;;;;3.80;0.88;;;;;;;;;;5117811;27;20028;-71
2021/08/07 08:37:16;;;;;;;5.00;0.93;;;;;;;;;;5106423;27;20497;-72
2021/08/07 08:39:42;;;;;;;3.25;0.75;;;;;;;;;;5110632;27;20028;-72
2021/08/07 08:42:08;;;;;;;4.32;0.90;;;;;;;;;;5111489;27;20040;-72
2021/08/07 08:44:35;;;;;;;2.08;0.60;;;;;;;;;;5115815;27;20039;-72
2021/08/07 08:47:02;;;;;;;3.95;0.70;;;;;;;;;;5106698;27;20059;-72
2021/08/07 08:49:29;;;;;;;3.63;0.70;;;;;;;;;;5084524;27;20193;-72
2021/08/07 08:51:58;;;;;;;2.15;0.73;;;;;;;;;;5106399;27;20039;-72
2021/08/07 08:54:24;;;;;;;2.70;0.40;;;;;;;;;;5117591;27;20035;-72
2021/08/07 08:56:50;;;;;;;2.78;0.63;;;;;;;;;;5103298;27;20053;-72
2021/08/07 08:59:20;;;;;;;3.65;0.60;;;;;;;;;;5113253;27;20038;-72
2021/08/07 09:01:47;;;;;;;3.20;0.30;;;;;;;;;;5110272;27;20028;-72
2021/08/07 09:04:14;;;;;;;1.42;0.30;;;;;;;;;;5110733;27;20059;-73
2021/08/07 09:06:40;;;;;;;2.15;0.40;;;;;;;;;;5113795;27;20374;-73
2021/08/07 09:09:10;;;;;;;2.47;0.30;;;;;;;;;;5105686;28;20032;-73
2021/08/07 09:11:38;;;;;;;2.08;0.30;;;;;;;;;;5083262;28;20047;-73
2021/08/07 09:14:23;;;;;;;3.63;0.45;;;;;;;;;;5104897;28;20079;-73
2021/08/07 09:17:01;;;;;;;3.67;0.50;;;;;;;;;;5106936;28;20506;-73
2021/08/07 09:19:39;;;;;;;1.15;0.22;;;;;;;;;;5104890;28;20472;-73
2021/08/07 09:22:13;;;;;;;2.92;0.50;;;;;;;;;;5110282;28;20066;-73
2021/08/07 09:24:58;;;;;;;1.90;0.30;;;;;;;;;;5110224;28;20202;-73
2021/08/07 09:27:31;;;;;;;2.17;0.57;;;;;;;;;;5113889;28;20048;-73
2021/08/07 09:29:58;;;;;;;2.95;0.63;;;;;;;;;;5102413;28;20552;-73
2021/08/07 09:32:24;;;;;;;2.30;0.50;;;;;;;;;;5114118;28;20115;-73
2021/08/07 09:35:03;;;;;;;1.92;0.50;;;;;;;;;;5112293;28;20044;-73
2021/08/07 09:37:29;;;;;;;4.10;1.02;;;;;;;;;;5094396;28;20103;-73
2021/08/07 09:39:55;;;;;;;2.92;0.40;;;;;;;;;;5106879;28;20036;-73
2021/08/07 09:42:22;;;;;;;1.42;0.40;;;;;;;;;;5080890;28;20148;-73
2021/08/07 09:45:10;;;;;;;3.22;0.70;;;;;;;;;;5108292;28;20039;-73
2021/08/07 09:47:56;;;;;;;5.18;0.50;;;;;;;;;;5116530;28;20133;-73
2021/08/07 09:50:23;;;;;;;1.45;0.32;;;;;;;;;;5103430;28;20035;-73
2021/08/07 09:52:50;;;;;;;2.15;0.50;;;;;;;;;;5114896;28;20039;-73
2021/08/07 09:55:16;;;;;;;1.67;0.35;;;;;;;;;;5109333;28;20036;-73
2021/08/07 09:57:42;;;;;;;0.95;0.28;;;;;;;;;;5109962;28;20111;-73
2021/08/07 10:00:09;;;;;;;1.27;0.30;;;;;;;;;;5089475;28;20050;-73
2021/08/07 10:02:37;;;;;;;1.25;0.30;;;;;;;;;;5116085;28;20096;-73
2021/08/07 10:05:11;;;;;;;2.22;0.52;;;;;;;;;;5103470;28;20046;-73
2021/08/07 10:07:37;;;;;;;2.60;0.43;;;;;;;;;;5109870;28;20043;-73
2021/08/07 10:10:24;;;;;;;2.92;0.50;;;;;;;;;;5105371;28;20142;-73
2021/08/07 10:12:50;;;;;;;3.17;0.68;;;;;;;;;;5116824;27;20403;-73
2021/08/07 10:15:16;;;;;;;3.55;0.60;;;;;;;;;;5117969;27;20047;-73
2021/08/07 10:17:42;;;;;;;2.20;0.40;;;;;;;;;;5110486;27;20035;-73
2021/08/07 10:20:09;;;;;;;4.00;0.50;;;;;;;;;;5107888;27;20043;-73
2021/08/07 10:22:35;;;;;;;2.13;0.50;;;;;;;;;;5119528;27;20031;-73
2021/08/07 10:25:03;;;;;;;2.45;0.38;;;;;;;;;;5111822;27;20040;-73
2021/08/07 10:27:32;;;;;;;1.92;0.65;;;;;;;;;;5114527;27;20371;-73
2021/08/07 10:30:01;;;;;;;4.03;0.73;;;;;;;;;;5084251;27;20069;-73
2021/08/07 10:32:28;;;;;;;2.85;0.55;;;;;;;;;;5113892;27;20043;-73
2021/08/07 10:34:55;;;;;;;3.40;0.63;;;;;;;;;;5115856;27;20059;-73
2021/08/07 10:37:21;;;;;;;3.15;0.50;;;;;;;;;;5103578;27;20058;-73
2021/08/07 10:39:47;;;;;;;2.88;0.55;;;;;;;;;;5116706;27;20048;-73
2021/08/07 10:42:16;;;;;;;3.28;0.55;;;;;;;;;;5114262;27;20090;-73
2021/08/07 10:44:43;;;;;;;4.15;0.40;;;;;;;;;;5114257;27;20126;-73
2021/08/07 10:47:09;;;;;;;3.65;0.50;;;;;;;;;;5107874;27;20043;-73
2021/08/07 10:49:40;;;;;;;2.90;0.60;;;;;;;;;;5118409;27;20427;-73
2021/08/07 10:52:29;;;;;;;2.83;0.50;;;;;;;;;;5079733;28;20043;-73
2021/08/07 10:54:56;;;;;;;2.47;0.52;;;;;;;;;;5085858;27;20112;-73
2021/08/07 10:57:44;;;;;;;3.30;0.57;;;;;;;;;;5109437;27;20038;-73
2021/08/07 11:00:17;;;;;;;2.42;0.45;;;;;;;;;;5109266;27;20419;-73
2021/08/07 11:02:43;;;;;;;3.80;0.43;;;;;;;;;;5110397;27;20411;-73
2021/08/07 11:05:10;;;;;;;1.60;0.45;;;;;;;;;;5096420;28;20545;-72
2021/08/07 11:07:37;;;;;;;2.85;0.60;;;;;;;;;;5079266;28;20127;-72
2021/08/07 11:10:08;;;;;;;2.03;0.50;;;;;;;;;;5080009;27;21534;-72
2021/08/07 11:12:37;;;;;;;4.13;0.60;;;;;;;;;;5109676;27;20349;-72
2021/08/07 11:15:06;;;;;;;2.15;0.50;;;;;;;;;;5111045;27;20040;-72
2021/08/07 11:17:34;;;;;;;2.50;0.40;;;;;;;;;;5107624;27;20432;-72
2021/08/07 11:20:08;;;;;;;2.47;0.93;;;;;;;;;;5120332;27;20047;-72
2021/08/07 11:22:37;;;;;;;2.35;0.77;;;;;;;;;;5102221;27;20036;-72
2021/08/07 11:25:05;;;;;;;1.50;0.38;;;;;;;;;;5111220;27;20491;-72
2021/08/07 11:27:52;;;;;;;1.70;0.50;;;;;;;;;;5108554;27;20087;-72
2021/08/07 11:30:30;;;;;;;2.47;0.60;;;;;;;;;;5113956;27;20036;-72
2021/08/07 11:33:00;;;;;;;1.08;0.40;;;;;;;;;;5106403;27;20484;-72
2021/08/07 11:35:32;;;;;;;2.40;0.40;;;;;;;;;;5115105;27;20101;-72
2021/08/07 11:38:09;;;;;;;1.77;0.47;;;;;;;;;;5102915;27;20403;-71
2021/08/07 11:40:41;;;;;;;4.32;0.35;;;;;;;;;;5117471;27;20088;-71
2021/08/07 11:43:13;;;;;;;2.15;0.38;;;;;;;;;;5109710;27;20040;-71
2021/08/07 11:45:40;;;;;;;1.88;0.60;;;;;;;;;;5109367;27;20495;-71
2021/08/07 11:48:06;;;;;;;3.53;0.47;;;;;;;;;;5107590;27;20300;-71
2021/08/07 11:50:32;;;;;;;3.65;0.60;;;;;;;;;;5109151;27;20051;-71
2021/08/07 11:52:59;;;;;;;2.72;0.43;;;;;;;;;;5086536;27;20054;-71
2021/08/07 11:55:34;;;;;;;3.38;0.50;;;;;;;;;;5104865;27;20730;-71
2021/08/07 11:58:04;;;;;;;2.95;0.50;;;;;;;;;;5110378;27;20122;-71
2021/08/07 12:00:32;;;;;;;3.10;0.55;;;;;;;;;;5109856;27;20036;-71
2021/08/07 12:03:00;;;;;;;4.32;0.70;;;;;;;;;;5117288;27;20498;-71
2021/08/07 12:05:26;;;;;;;2.72;0.60;;;;;;;;;;5104135;27;20049;-71
2021/08/07 12:08:06;;;;;;;3.83;0.80;;;;;;;;;;5114180;27;20081;-71
2021/08/07 12:10:34;;;;;;;1.90;0.40;;;;;;;;;;5109149;27;20046;-71
2021/08/07 12:13:00;;;;;;;2.90;0.50;;;;;;;;;;5117705;27;20407;-71
2021/08/07 12:15:26;;;;;;;2.22;0.55;;;;;;;;;;5076478;27;20044;-71
2021/08/07 12:17:52;;;;;;;2.97;0.80;;;;;;;;;;5115240;27;20033;-71
2021/08/07 12:20:19;;;;;;;1.98;0.50;;;;;;;;;;5112420;27;20103;-71
2021/08/07 12:22:57;;;;;;;3.05;0.60;;;;;;;;;;5093503;27;20048;-71
2021/08/07 12:25:23;;;;;;;2.13;0.60;;;;;;;;;;5105373;27;20034;-71
2021/08/07 12:28:12;;;;;;;2.22;0.50;;;;;;;;;;5114950;27;20040;-71
2021/08/07 12:30:51;;;;;;;2.10;0.73;;;;;;;;;;5105088;27;20028;-71
2021/08/07 12:33:18;;;;;;;2.53;0.63;;;;;;;;;;5118923;27;20035;-71
2021/08/07 12:35:44;;;;;;;3.33;0.50;;;;;;;;;;5105941;27;20047;-71
2021/08/07 12:38:15;;;;;;;2.95;0.60;;;;;;;;;;5109878;27;20039;-71
2021/08/07 12:40:42;;;;;;;2.80;0.50;;;;;;;;;;5109386;27;20048;-71
2021/08/07 12:43:09;;;;;;;2.53;0.60;;;;;;;;;;5101975;27;20047;-71
2021/08/07 12:45:35;;;;;;;5.10;0.85;;;;;;;;;;5099361;27;20371;-71
2021/08/07 12:48:01;;;;;;;1.67;0.40;;;;;;;;;;5113301;27;20078;-71
2021/08/07 12:50:27;;;;;;;3.35;0.50;;;;;;;;;;5117210;27;20498;-71
2021/08/07 12:52:57;;;;;;;11.90;1.65;;;;;;;;;;5108335;27;20035;-71
2021/08/07 12:55:25;;;;;;;6.00;0.68;;;;;;;;;;5112540;27;20051;-71
2021/08/07 12:58:09;;;;;;;4.35;0.88;;;;;;;;;;5101957;27;20639;-71
2021/08/07 13:00:35;;;;;;;3.65;0.70;;;;;;;;;;5119063;27;20043;-71
2021/08/07 13:03:05;;;;;;;4.03;0.50;;;;;;;;;;5104765;27;20051;-71
2021/08/07 13:05:35;;;;;;;1.90;0.60;;;;;;;;;;5113562;27;20059;-71
2021/08/07 13:08:21;;;;;;;2.67;0.55;;;;;;;;;;5109054;27;20045;-71
2021/08/07 13:10:47;;;;;;;5.00;0.77;;;;;;;;;;5114165;27;20108;-71
2021/08/07 13:13:13;;;;;;;2.25;0.47;;;;;;;;;;5102668;27;20042;-71
2021/08/07 13:15:47;;;;;;;3.78;0.60;;;;;;;;;;5112477;28;20058;-71
2021/08/07 13:18:17;;;;;;;2.80;0.68;;;;;;;;;;5100842;28;20062;-71
2021/08/07 13:20:50;;;;;;;3.20;0.43;;;;;;;;;;5115828;28;20077;-71
2021/08/07 13:23:16;;;;;;;4.87;0.70;;;;;;;;;;5105615;28;20077;-71
2021/08/07 13:25:42;;;;;;;3.35;0.50;;;;;;;;;;5110861;28;20368;-71
2021/08/07 13:28:10;;;;;;;3.53;0.50;;;;;;;;;;5103147;28;20054;-71
2021/08/07 13:30:52;;;;;;;3.25;0.60;;;;;;;;;;5116398;28;20051;-71
2021/08/07 13:33:47;;;;;;;8.05;0.98;;;;;;;;;;5101852;28;20035;-70
2021/08/07 13:36:13;;;;;;;11.30;1.60;;;;;;;;;;5089104;28;20094;-72
2021/08/07 13:38:39;;;;;;;4.18;1.23;;;;;;;;;;5102897;28;20071;-72
2021/08/07 13:41:05;;;;;;;5.00;1.40;;;;;;;;;;5116104;28;20066;-72
2021/08/07 13:43:32;;;;;;;3.78;0.90;;;;;;;;;;5096594;28;20036;-73
2021/08/07 13:45:58;;;;;;;2.95;0.50;;;;;;;;;;5113677;27;20031;-74
2021/08/07 13:48:24;;;;;;;2.70;0.90;;;;;;;;;;5111032;27;20036;-74
2021/08/07 13:50:50;;;;;;;2.90;0.80;;;;;;;;;;5123184;27;20040;-74
2021/08/07 13:53:16;;;;;;;3.70;0.93;;;;;;;;;;5089188;27;23336;-74
2021/08/07 13:55:42;;;;;;;4.20;0.98;;;;;;;;;;5099000;28;20119;-74
2021/08/07 13:58:08;;;;;;;5.93;1.40;;;;;;;;;;5117100;27;20040;-74
2021/08/07 14:00:35;;;;;;;5.55;0.90;;;;;;;;;;5117043;27;20043;-75
2021/08/07 14:03:01;;;;;;;3.13;1.25;;;;;;;;;;5097644;27;20158;-74
2021/08/07 14:05:27;;;;;;;4.93;1.05;;;;;;;;;;5112953;27;20119;-74
2021/08/07 14:07:54;;;;;;;4.10;0.98;;;;;;;;;;5117441;27;20061;-74
2021/08/07 14:10:20;;;;;;;3.00;1.23;;;;;;;;;;5108888;27;20046;-74
2021/08/07 14:12:46;;;;;;;3.00;1.05;;;;;;;;;;5114780;27;20389;-74
2021/08/07 14:15:12;;;;;;;3.35;1.02;;;;;;;;;;5077768;28;20047;-74
2021/08/07 14:17:38;;;;;;;5.50;1.17;;;;;;;;;;5119854;27;20039;-74
2021/08/07 14:20:05;;;;;;;4.38;1.20;;;;;;;;;;5106986;27;20032;-73
2021/08/07 14:22:31;;;;;;;3.08;1.00;;;;;;;;;;5112329;27;20044;-73
2021/08/07 14:24:57;;;;;;;2.33;0.70;;;;;;;;;;5092260;27;20457;-73
2021/08/07 14:27:23;;;;;;;1.75;0.88;;;;;;;;;;5098116;27;20051;-73
2021/08/07 14:29:49;;;;;;;3.70;0.88;;;;;;;;;;5079357;27;20387;-73
2021/08/07 14:32:15;;;;;;;2.20;0.68;;;;;;;;;;5116496;27;20032;-74
2021/08/07 14:34:42;;;;;;;3.40;0.90;;;;;;;;;;5116035;27;20039;-74
2021/08/07 14:37:08;;;;;;;5.65;1.20;;;;;;;;;;5082399;28;20129;-74
2021/08/07 14:39:34;;;;;;;3.95;1.05;;;;;;;;;;5113855;27;20420;-73
2021/08/07 14:42:00;;;;;;;2.58;0.73;;;;;;;;;;5114561;27;20083;-73
2021/08/07 14:44:27;;;;;;;4.13;1.13;;;;;;;;;;5117515;27;20406;-73
2021/08/07 14:46:53;;;;;;;4.18;1.00;;;;;;;;;;5106264;27;20047;-73